Impacts TAF Board INFO
FOR SITUATIONAL AWARENESS. NOT TO BE USED FOR FLIGHT PLANNING PURPOSES.
IDs:

KFLL - Ft Lauderdale-Hollyw, FL, US

Issued at 1131 UTC 18 Nov 2017
Updated at 1532 UTC 18 Nov 2017
Potential Impact None Slight Moderate High
Time1453Z 18/16Z 18/17Z 18/18Z 18/19Z 18/20Z 18/21Z 18/22Z 18/23Z 19/00Z 19/01Z 19/02Z 19/03Z 19/04Z>>
Type OBS PRVL PRVL PRVL PRVL PRVL PRVL PRVL PRVL PRVL PRVL PRVL PRVL PRVL
VIS 10 >6 >6 >6 >6 >6 >6 >6 >6 >6 >6 >6 >6 >6
CIG -- -- -- -- -- -- -- -- -- -- -- -- -- --
Cover SCT SCT SCT SCT SCT SCT SCT SCT SCT SCT SCT SCT FEW FEW
FltCat VFR VFR VFR VFR VFR VFR VFR VFR VFR VFR VFR VFR VFR VFR
WX -- -- -- -- -- -- -- -- -- -- -- -- -- --
WDir 80 100 100 100 100 100 100 100 100 100 100 100 VRB VRB
WSpd 8 8 8 8 8 8 8 8 8 8 8 8 3 3
WGst -- -- -- -- -- -- -- -- -- -- -- -- -- --

Raw TAF
KFLL 181131Z 1812/1918 VRB03KT P6SM FEW030
  FM181500 10008KT P6SM SCT040
  FM190300 VRB03KT P6SM FEW040
  FM191500 29008KT P6SM SKC


Raw METAR
KFLL 181453Z 08008KT 10SM SCT042 26/18 A3002 RMK AO2 SLP166 T02560178 51013
KFLL 181353Z 30003KT 10SM FEW031 FEW040 23/18 A3002 RMK AO2 SLP164 T02330183
KFLL 181253Z 31003KT 10SM FEW029 21/17 A3000 RMK AO2 SLP159 T02060172

METAR Board
Radar Display
Forecast Discussion

FOR SITUATIONAL AWARENESS. NOT TO BE USED FOR FLIGHT PLANNING PURPOSES.